createdAt,value
2023-10-21T00:00:54.019Z,62.91
2023-10-21T00:02:26.742Z,63.19
2023-10-21T00:04:00.025Z,63.17
2023-10-21T00:05:32.412Z,63.02
2023-10-21T00:07:05.943Z,63.36
2023-10-21T00:08:38.742Z,63.12
2023-10-21T00:10:13.596Z,63.48
2023-10-21T00:11:45.865Z,63.25
2023-10-21T00:13:19.172Z,63.37
2023-10-21T00:14:51.825Z,63.38
2023-10-21T00:16:25.468Z,63.43
2023-10-21T00:17:57.800Z,64.32
2023-10-21T00:19:31.196Z,63.77
2023-10-21T00:21:04.709Z,63.63
2023-10-21T00:22:38.363Z,63.64
2023-10-21T00:24:10.720Z,64.03
2023-10-21T00:25:45.367Z,64.58
2023-10-21T00:27:19.091Z,64.58
2023-10-21T00:28:52.405Z,64.95
2023-10-21T00:30:24.746Z,64.35
2023-10-21T00:31:58.008Z,64.59
2023-10-21T00:33:30.570Z,64.60
2023-10-21T00:35:04.928Z,64.55
2023-10-21T00:36:37.249Z,65.16
2023-10-21T00:38:10.649Z,64.85
2023-10-21T00:39:45.091Z,64.76
2023-10-21T00:41:18.739Z,64.89
2023-10-21T00:42:51.979Z,65.03
2023-10-21T00:44:24.328Z,65.11
2023-10-21T00:45:57.760Z,64.79
2023-10-21T00:47:31.072Z,65.72
2023-10-21T00:49:05.712Z,64.88
2023-10-21T00:50:39.099Z,65.31
2023-10-21T00:52:15.107Z,65.35
2023-10-21T00:53:47.924Z,65.44
2023-10-21T00:55:21.281Z,65.41
2023-10-21T00:56:56.083Z,64.95
2023-10-21T00:58:32.629Z,64.97
2023-10-21T01:00:12.106Z,65.28
2023-10-21T01:01:46.060Z,65.44
2023-10-21T01:03:18.589Z,65.01
2023-10-21T01:04:52.091Z,65.56
2023-10-21T01:06:24.500Z,65.34
2023-10-21T01:08:00.847Z,65.89
2023-10-21T01:09:33.152Z,65.65
2023-10-21T01:11:06.681Z,65.82
2023-10-21T01:12:41.025Z,65.62
2023-10-21T01:14:14.711Z,65.87
2023-10-21T01:15:47.256Z,65.80
2023-10-21T01:17:20.905Z,65.53
2023-10-21T01:18:54.388Z,65.98
2023-10-21T01:20:26.582Z,65.96
2023-10-21T01:22:00.041Z,66.19
2023-10-21T01:23:36.163Z,65.92
2023-10-21T01:25:09.085Z,65.60
2023-10-21T01:26:42.382Z,65.77
2023-10-21T01:28:15.368Z,65.49
2023-10-21T01:29:49.373Z,65.53
2023-10-21T01:31:23.215Z,65.51
2023-10-21T01:32:55.730Z,65.57
2023-10-21T01:34:29.348Z,65.56
2023-10-21T01:36:01.736Z,65.45
2023-10-21T01:37:35.234Z,65.38
2023-10-21T01:39:12.051Z,65.42
2023-10-21T01:40:46.127Z,66.01
2023-10-21T01:42:18.540Z,65.83
2023-10-21T01:43:51.833Z,66.10
2023-10-21T01:45:24.671Z,65.79
2023-10-21T01:46:57.956Z,65.79
2023-10-21T01:48:31.956Z,65.72
2023-10-21T01:50:08.532Z,65.71
2023-10-21T01:51:41.928Z,65.58
2023-10-21T01:53:14.860Z,65.71
2023-10-21T01:54:49.748Z,65.91
2023-10-21T01:56:21.900Z,65.82
2023-10-21T01:57:55.325Z,65.80
2023-10-21T01:59:27.730Z,65.93
2023-10-21T02:01:01.339Z,66.10
2023-10-21T02:02:33.804Z,66.12
2023-10-21T02:04:07.507Z,66.80
2023-10-21T02:05:39.833Z,66.56
2023-10-21T02:07:13.540Z,66.86
2023-10-21T02:08:45.823Z,66.73
2023-10-21T02:10:20.944Z,66.66
2023-10-21T02:11:55.345Z,67.30
2023-10-21T02:13:29.060Z,66.56
2023-10-21T02:15:01.525Z,66.72
2023-10-21T02:16:35.192Z,66.63
2023-10-21T02:18:10.129Z,66.59
2023-10-21T02:19:44.391Z,67.00
2023-10-21T02:21:16.562Z,66.72
2023-10-21T02:22:49.949Z,66.70
2023-10-21T02:24:22.244Z,66.49
2023-10-21T02:26:02.942Z,67.21
2023-10-21T02:27:35.097Z,66.97
2023-10-21T02:29:08.345Z,66.65
2023-10-21T02:30:41.109Z,66.46
2023-10-21T02:32:15.020Z,66.95
2023-10-21T02:33:47.308Z,66.65
2023-10-21T02:35:20.678Z,67.31
2023-10-21T02:36:52.931Z,66.75
2023-10-21T02:38:26.834Z,66.73
2023-10-21T02:39:59.417Z,66.78
2023-10-21T02:41:34.126Z,66.82
2023-10-21T02:43:07.399Z,67.02
2023-10-21T02:44:40.088Z,67.27
2023-10-21T02:46:14.401Z,67.20
2023-10-21T02:47:48.044Z,67.11
2023-10-21T02:49:20.367Z,67.20
2023-10-21T02:50:54.556Z,67.45
2023-10-21T02:52:26.855Z,67.33
2023-10-21T02:54:00.307Z,67.51
2023-10-21T02:55:32.610Z,67.15
2023-10-21T02:57:07.545Z,67.50
2023-10-21T02:58:39.887Z,67.27
2023-10-21T03:00:16.913Z,67.57
2023-10-21T03:01:49.945Z,67.56
2023-10-21T03:03:23.423Z,67.16
2023-10-21T03:04:55.808Z,67.72
2023-10-21T03:06:29.303Z,67.28
2023-10-21T03:08:01.600Z,67.82
2023-10-21T03:09:35.266Z,67.43
2023-10-21T03:11:09.236Z,67.36
2023-10-21T03:12:45.076Z,67.42
2023-10-21T03:14:18.440Z,67.87
2023-10-21T03:15:51.243Z,67.55
2023-10-21T03:17:24.759Z,67.81
2023-10-21T03:18:57.454Z,67.91
2023-10-21T03:20:34.137Z,68.50
2023-10-21T03:22:06.569Z,68.30
2023-10-21T03:23:40.293Z,68.45
2023-10-21T03:25:13.008Z,68.84
2023-10-21T03:26:46.295Z,68.71
2023-10-21T03:28:20.075Z,68.73
2023-10-21T03:29:53.316Z,68.61
2023-10-21T03:31:26.728Z,68.63
2023-10-21T03:32:59.067Z,68.59
2023-10-21T03:34:34.797Z,68.82
2023-10-21T03:36:07.448Z,68.52
2023-10-21T03:37:40.771Z,68.81
2023-10-21T03:39:13.557Z,69.23
2023-10-21T03:40:47.092Z,69.54
2023-10-21T03:42:22.321Z,69.26
2023-10-21T03:43:55.991Z,69.12
2023-10-21T03:45:30.825Z,69.16
2023-10-21T03:47:03.388Z,69.84
2023-10-21T03:48:37.156Z,69.47
2023-10-21T03:50:11.143Z,69.24
2023-10-21T03:51:43.395Z,69.24
2023-10-21T03:53:17.763Z,69.28
2023-10-21T03:54:51.069Z,69.42
2023-10-21T03:56:23.259Z,69.44
2023-10-21T03:57:56.524Z,69.30
2023-10-21T03:59:30.445Z,69.08
2023-10-21T04:01:03.875Z,69.02
2023-10-21T04:02:36.039Z,69.17
2023-10-21T04:04:09.365Z,68.86
2023-10-21T04:05:43.552Z,68.80
2023-10-21T04:07:16.840Z,68.59
2023-10-21T04:08:50.109Z,68.25
2023-10-21T04:10:22.559Z,68.10
2023-10-21T04:11:56.130Z,68.19
2023-10-21T04:13:28.473Z,68.63
2023-10-21T04:15:03.136Z,68.82
2023-10-21T04:16:35.446Z,68.87
2023-10-21T04:18:09.455Z,68.69
2023-10-21T04:19:41.640Z,69.32
2023-10-21T04:21:15.009Z,69.31
2023-10-21T04:22:47.220Z,69.49
2023-10-21T04:24:20.579Z,69.63
2023-10-21T04:25:53.789Z,69.53
2023-10-21T04:27:27.472Z,69.52
2023-10-21T04:28:59.672Z,70.00
2023-10-21T04:30:34.365Z,69.78
2023-10-21T04:32:07.767Z,69.83
2023-10-21T04:33:41.256Z,69.74
2023-10-21T04:35:14.105Z,69.57
2023-10-21T04:36:47.494Z,69.24
2023-10-21T04:38:19.802Z,69.42
2023-10-21T04:39:53.719Z,69.50
2023-10-21T04:41:25.965Z,69.36
2023-10-21T04:42:59.282Z,69.56
2023-10-21T04:44:31.534Z,70.09
2023-10-21T04:46:06.466Z,69.71
2023-10-21T04:47:39.279Z,69.23
2023-10-21T04:49:12.880Z,69.42
2023-10-21T04:50:46.180Z,69.26
2023-10-21T04:52:19.650Z,69.42
2023-10-21T04:53:52.961Z,69.54
2023-10-21T04:55:25.550Z,69.48
2023-10-21T04:56:58.858Z,69.27
2023-10-21T04:58:31.235Z,69.32
2023-10-21T05:00:05.620Z,69.14
2023-10-21T05:01:39.389Z,69.13
2023-10-21T05:03:12.802Z,69.35
2023-10-21T05:04:45.294Z,69.00
2023-10-21T05:06:18.588Z,68.90
2023-10-21T05:07:51.098Z,68.88
2023-10-21T05:09:25.058Z,68.86
2023-10-21T05:10:58.357Z,68.83
2023-10-21T05:12:32.247Z,68.96
2023-10-21T05:14:06.558Z,68.70
2023-10-21T05:15:39.836Z,68.71
2023-10-21T05:17:15.083Z,68.62
2023-10-21T05:18:48.624Z,68.67
2023-10-21T05:20:21.801Z,68.87
2023-10-21T05:21:55.023Z,69.05
2023-10-21T05:23:28.255Z,69.32
2023-10-21T05:25:00.504Z,69.45
2023-10-21T05:26:33.918Z,69.04
2023-10-21T05:28:06.913Z,68.78
2023-10-21T05:29:40.151Z,68.74
2023-10-21T05:31:12.488Z,68.54
2023-10-21T05:32:47.479Z,68.34
2023-10-21T05:34:20.014Z,67.99
2023-10-21T05:35:54.323Z,67.71
2023-10-21T05:37:27.351Z,67.44
2023-10-21T05:39:02.144Z,67.51
2023-10-21T05:40:36.439Z,67.55
2023-10-21T05:42:10.770Z,67.85
2023-10-21T05:43:43.070Z,67.49
2023-10-21T05:45:16.619Z,67.56
2023-10-21T05:46:48.908Z,67.63
2023-10-21T05:48:23.753Z,67.58
2023-10-21T05:49:56.727Z,67.37
2023-10-21T05:51:31.055Z,67.53
2023-10-21T05:53:05.175Z,67.35
2023-10-21T05:54:38.270Z,67.48
2023-10-21T05:56:13.707Z,67.99
2023-10-21T05:57:48.338Z,68.07
2023-10-21T05:59:20.493Z,68.36
2023-10-21T06:00:53.798Z,68.55
2023-10-21T06:02:26.071Z,67.98
2023-10-21T06:04:01.194Z,67.71
2023-10-21T06:05:34.245Z,67.37
2023-10-21T06:07:07.920Z,66.56
2023-10-21T06:08:40.310Z,66.04
2023-10-21T06:10:15.325Z,65.86
2023-10-21T06:11:47.590Z,64.29
2023-10-21T06:13:20.825Z,63.68
2023-10-21T06:14:54.576Z,62.57
2023-10-21T06:16:28.067Z,62.85
2023-10-21T06:18:00.536Z,60.56
2023-10-21T06:19:35.553Z,60.79
2023-10-21T06:21:07.768Z,59.72
2023-10-21T06:22:41.384Z,59.96
2023-10-21T06:24:14.121Z,58.32
2023-10-21T06:25:47.896Z,59.41
2023-10-21T06:27:20.097Z,57.90
2023-10-21T06:28:53.597Z,58.02
2023-10-21T06:30:26.268Z,56.38
2023-10-21T06:31:59.620Z,56.98
2023-10-21T06:33:32.880Z,56.45
2023-10-21T06:35:08.439Z,56.17
2023-10-21T06:36:41.696Z,55.88
2023-10-21T06:38:14.114Z,54.96
2023-10-21T06:39:49.404Z,53.11
2023-10-21T06:41:22.742Z,52.86
2023-10-21T06:42:57.260Z,51.88
2023-10-21T06:44:30.648Z,51.21
2023-10-21T06:46:04.052Z,51.81
2023-10-21T06:47:36.388Z,51.53
2023-10-21T06:49:10.460Z,51.30
2023-10-21T06:50:45.163Z,49.70
2023-10-21T06:52:19.136Z,50.66
2023-10-21T06:53:52.550Z,50.50
2023-10-21T06:55:24.840Z,50.48
2023-10-21T06:56:58.358Z,48.96
2023-10-21T06:58:30.700Z,49.51
2023-10-21T07:00:05.204Z,47.49
2023-10-21T07:01:37.624Z,48.20
2023-10-21T07:03:11.681Z,48.08
2023-10-21T07:04:44.841Z,46.54
2023-10-21T07:06:19.808Z,46.73
2023-10-21T07:07:52.014Z,45.87
2023-10-21T07:09:25.578Z,45.00
2023-10-21T07:10:58.156Z,43.86
2023-10-21T07:12:31.821Z,44.09
2023-10-21T07:14:05.088Z,44.32
2023-10-21T07:15:38.281Z,43.39
2023-10-21T07:17:11.014Z,41.37
2023-10-21T07:18:44.365Z,42.84
2023-10-21T07:20:16.886Z,41.92
2023-10-21T07:21:51.506Z,43.33
2023-10-21T07:23:24.907Z,41.40
2023-10-21T07:24:57.638Z,42.80
2023-10-21T07:26:31.416Z,41.20
2023-10-21T07:28:05.204Z,41.01
2023-10-21T07:29:37.499Z,40.57
2023-10-21T07:31:11.064Z,40.36
2023-10-21T07:32:45.722Z,39.69
2023-10-21T07:34:18.162Z,40.40
2023-10-21T07:35:52.589Z,39.61
2023-10-21T07:37:30.066Z,39.87
2023-10-21T07:39:06.049Z,38.77
2023-10-21T07:40:38.253Z,39.06
2023-10-21T07:42:11.887Z,38.85
2023-10-21T07:43:44.304Z,39.01
2023-10-21T07:45:18.776Z,37.45
2023-10-21T07:46:52.034Z,38.00
2023-10-21T07:48:26.622Z,38.08
2023-10-21T07:49:59.143Z,38.42
2023-10-21T07:51:32.706Z,38.17
2023-10-21T07:53:06.655Z,37.34
2023-10-21T07:54:40.235Z,36.83
2023-10-21T07:56:12.676Z,36.12
2023-10-21T07:57:46.174Z,36.05
2023-10-21T07:59:18.507Z,36.30
2023-10-21T08:00:53.081Z,35.94
2023-10-21T08:02:26.549Z,35.72
2023-10-21T08:03:59.866Z,36.25
2023-10-21T08:05:32.192Z,35.40
2023-10-21T08:07:06.267Z,35.29
2023-10-21T08:08:42.925Z,35.65
2023-10-21T08:10:16.381Z,35.10
2023-10-21T08:11:48.650Z,34.50
2023-10-21T08:13:22.786Z,35.19
2023-10-21T08:14:55.107Z,33.30
2023-10-21T08:16:28.511Z,32.66
2023-10-21T08:18:00.944Z,33.40
2023-10-21T08:19:34.749Z,32.61
2023-10-21T08:21:07.708Z,32.61
2023-10-21T08:22:41.996Z,33.04
2023-10-21T08:24:15.713Z,32.85
2023-10-21T08:25:49.587Z,31.89
2023-10-21T08:27:23.088Z,32.91
2023-10-21T08:28:56.398Z,31.83
2023-10-21T08:30:28.771Z,31.13
2023-10-21T08:32:02.145Z,31.07
2023-10-21T08:33:35.322Z,31.24
2023-10-21T08:35:08.951Z,30.90
2023-10-21T08:36:41.998Z,31.10
2023-10-21T08:38:15.686Z,31.23
2023-10-21T08:39:49.629Z,31.88
2023-10-21T08:41:23.114Z,30.93
2023-10-21T08:43:02.467Z,30.88
2023-10-21T08:44:35.239Z,30.75
2023-10-21T08:46:11.084Z,30.56
2023-10-21T08:47:48.047Z,30.67
2023-10-21T08:49:22.166Z,30.71
2023-10-21T08:50:55.176Z,30.13
2023-10-21T08:52:31.908Z,30.32
2023-10-21T08:54:06.277Z,30.52
2023-10-21T08:55:40.873Z,31.01
2023-10-21T08:57:14.212Z,30.92
2023-10-21T08:58:47.520Z,30.92
2023-10-21T09:00:21.113Z,31.54
2023-10-21T09:01:53.472Z,31.61
2023-10-21T09:03:27.442Z,31.35
2023-10-21T09:05:00.580Z,31.59
2023-10-21T09:06:34.054Z,31.64
2023-10-21T09:08:06.916Z,31.53
2023-10-21T09:09:40.211Z,31.78
2023-10-21T09:11:16.151Z,31.58
2023-10-21T09:12:49.598Z,31.55
2023-10-21T09:14:23.988Z,32.04
2023-10-21T09:15:57.309Z,31.67
2023-10-21T09:17:37.880Z,31.45
2023-10-21T09:19:11.684Z,31.73
2023-10-21T09:20:55.345Z,31.68
2023-10-21T09:22:29.192Z,31.27
2023-10-21T09:24:04.047Z,31.62
2023-10-21T09:25:37.200Z,31.50
2023-10-21T09:27:16.247Z,31.96
2023-10-21T09:28:49.195Z,31.72
2023-10-21T09:30:24.128Z,31.13
2023-10-21T09:31:57.882Z,31.19
2023-10-21T09:33:31.584Z,31.32
2023-10-21T09:35:22.820Z,30.45
2023-10-21T09:36:57.727Z,30.88
2023-10-21T09:38:38.144Z,30.23
2023-10-21T09:40:11.229Z,31.03
2023-10-21T09:41:45.568Z,31.01
2023-10-21T09:43:25.283Z,29.56
2023-10-21T09:45:00.243Z,30.77
2023-10-21T09:46:35.430Z,30.72
2023-10-21T09:48:12.822Z,31.02
2023-10-21T09:49:47.188Z,30.66
2023-10-21T09:51:23.071Z,29.21
2023-10-21T09:53:00.448Z,29.10
2023-10-21T09:54:42.682Z,28.88
2023-10-21T09:56:18.954Z,27.72
2023-10-21T09:57:54.524Z,27.34
2023-10-21T09:59:31.122Z,26.69
2023-10-21T10:01:04.082Z,26.35
2023-10-21T10:02:39.343Z,26.42
2023-10-21T10:04:14.558Z,26.04
2023-10-21T10:05:50.177Z,25.89
2023-10-21T10:07:37.550Z,25.31
2023-10-21T10:09:14.285Z,25.40
2023-10-21T10:10:49.180Z,25.39
2023-10-21T10:12:26.763Z,24.68
2023-10-21T10:13:59.268Z,24.57
2023-10-21T10:15:39.241Z,24.92
2023-10-21T10:17:11.862Z,25.02
2023-10-21T10:18:49.598Z,23.86
2023-10-21T10:20:23.796Z,24.21
2023-10-21T10:21:59.296Z,23.18
2023-10-21T10:23:33.836Z,23.16
2023-10-21T10:25:11.693Z,23.41
2023-10-21T10:27:32.280Z,21.60
2023-10-21T10:29:26.463Z,20.97
2023-10-21T10:31:01.941Z,21.83
2023-10-21T10:32:44.678Z,20.01
2023-10-21T10:34:19.215Z,21.31
2023-10-21T10:35:53.884Z,20.74
2023-10-21T10:37:31.976Z,19.30
2023-10-21T10:39:06.059Z,20.43
2023-10-21T10:40:40.024Z,20.02
2023-10-21T10:42:13.374Z,19.61
2023-10-21T10:43:46.684Z,19.10
2023-10-21T10:45:20.287Z,19.61
2023-10-21T10:46:54.981Z,20.21
2023-10-21T10:48:27.585Z,19.38
2023-10-21T10:50:01.922Z,19.44
2023-10-21T10:51:44.607Z,16.93
2023-10-21T10:53:21.216Z,19.01
2023-10-21T10:54:54.602Z,18.38
2023-10-21T10:56:41.424Z,17.39
2023-10-21T10:58:13.931Z,18.62
2023-10-21T10:59:48.665Z,18.61
2023-10-21T11:01:26.713Z,18.12
2023-10-21T11:03:02.158Z,18.37
2023-10-21T11:04:35.675Z,18.16
2023-10-21T11:06:08.061Z,17.78
2023-10-21T11:07:41.864Z,18.05
2023-10-21T11:09:18.473Z,17.75
2023-10-21T11:10:54.597Z,18.04
2023-10-21T11:12:28.623Z,17.96
2023-10-21T11:14:02.139Z,18.18
2023-10-21T11:15:42.971Z,16.43
2023-10-21T11:17:15.897Z,17.72
2023-10-21T11:18:51.062Z,17.52
2023-10-21T11:20:23.369Z,17.63
2023-10-21T11:21:56.722Z,17.57
2023-10-21T11:23:30.135Z,17.58
2023-10-21T11:25:05.538Z,17.90
2023-10-21T11:26:38.398Z,17.87
2023-10-21T11:28:14.920Z,17.93
2023-10-21T11:29:48.886Z,17.65
2023-10-21T11:31:22.217Z,17.43
2023-10-21T11:32:56.248Z,17.53
2023-10-21T11:34:31.986Z,17.38
2023-10-21T11:36:06.007Z,16.99
2023-10-21T11:37:39.351Z,17.06
2023-10-21T11:39:15.513Z,17.03
2023-10-21T11:40:49.171Z,17.15
2023-10-21T11:42:21.465Z,16.50
2023-10-21T11:43:54.725Z,16.44
2023-10-21T11:45:30.459Z,16.77
2023-10-21T11:47:05.444Z,16.42
2023-10-21T11:48:39.691Z,16.60
2023-10-21T11:50:14.289Z,16.78
2023-10-21T11:51:47.941Z,16.37
2023-10-21T11:53:21.588Z,16.37
2023-10-21T11:55:09.490Z,16.50
2023-10-21T11:56:59.337Z,15.59
2023-10-21T11:58:50.371Z,16.33
2023-10-21T12:00:47.322Z,16.00
2023-10-21T12:02:49.449Z,16.40
2023-10-21T12:04:39.770Z,16.64
2023-10-21T12:06:28.413Z,16.38
2023-10-21T12:08:19.411Z,15.88
2023-10-21T12:10:10.508Z,16.12
2023-10-21T12:12:01.335Z,16.01
2023-10-21T12:13:49.016Z,16.25
2023-10-21T12:15:36.630Z,16.00
2023-10-21T12:17:32.656Z,16.47
2023-10-21T12:19:22.724Z,16.25
2023-10-21T12:21:21.809Z,16.32
2023-10-21T12:23:10.433Z,16.46
2023-10-21T12:25:01.140Z,16.39
2023-10-21T12:26:57.198Z,16.06
2023-10-21T12:28:47.961Z,16.06
2023-10-21T12:31:05.009Z,16.23
2023-10-21T12:33:09.931Z,16.49
2023-10-21T12:35:02.373Z,16.49
2023-10-21T12:36:36.480Z,16.59
2023-10-21T12:38:24.068Z,17.15
2023-10-21T12:39:59.428Z,16.80
2023-10-21T12:41:34.638Z,16.77
2023-10-21T12:43:26.027Z,16.98
2023-10-21T12:44:58.881Z,16.94
2023-10-21T12:46:38.711Z,16.76
2023-10-21T12:48:11.180Z,16.56
2023-10-21T12:49:46.906Z,16.47
2023-10-21T12:51:20.025Z,17.28
2023-10-21T12:52:53.440Z,17.29
2023-10-21T12:54:33.809Z,17.59
2023-10-21T12:56:08.087Z,17.21
2023-10-21T12:57:42.101Z,18.11
2023-10-21T12:59:15.601Z,17.59
2023-10-21T13:00:47.888Z,17.38
2023-10-21T13:02:21.270Z,16.82
2023-10-21T13:03:53.595Z,17.64
2023-10-21T13:05:27.820Z,17.33
2023-10-21T13:07:01.378Z,16.96
2023-10-21T13:08:34.686Z,16.89
2023-10-21T13:10:11.063Z,16.85
2023-10-21T13:11:44.389Z,16.63
2023-10-21T13:13:19.605Z,17.16
2023-10-21T13:14:53.460Z,16.79
2023-10-21T13:16:28.138Z,17.16
2023-10-21T13:18:05.218Z,17.25
2023-10-21T13:19:38.818Z,17.44
2023-10-21T13:21:11.162Z,17.38
2023-10-21T13:22:45.638Z,17.49
2023-10-21T13:24:17.956Z,17.85
2023-10-21T13:25:52.872Z,17.29
2023-10-21T13:27:26.463Z,17.31
2023-10-21T13:29:00.395Z,17.54
2023-10-21T13:30:33.943Z,17.31
2023-10-21T13:32:09.208Z,17.50
2023-10-21T13:33:41.632Z,17.39
2023-10-21T13:35:16.376Z,17.15
2023-10-21T13:36:49.911Z,17.40
2023-10-21T13:38:22.448Z,17.63
2023-10-21T13:39:56.362Z,17.67
2023-10-21T13:41:30.630Z,17.25
2023-10-21T13:43:05.590Z,17.55
2023-10-21T13:44:38.263Z,17.39
2023-10-21T13:46:11.791Z,17.17
2023-10-21T13:47:44.540Z,17.47
2023-10-21T13:49:18.329Z,17.29
2023-10-21T13:50:51.574Z,17.39
2023-10-21T13:52:26.474Z,17.25
2023-10-21T13:54:00.234Z,17.07
2023-10-21T13:55:33.049Z,17.37
2023-10-21T13:57:08.071Z,16.88
2023-10-21T13:58:40.457Z,17.47
2023-10-21T14:00:36.248Z,17.08
2023-10-21T14:02:10.424Z,17.73
2023-10-21T14:03:42.903Z,17.89
2023-10-21T14:05:16.926Z,17.49
2023-10-21T14:06:50.540Z,17.83
2023-10-21T14:08:25.458Z,18.04
2023-10-21T14:09:58.847Z,18.15
2023-10-21T14:11:32.135Z,17.61
2023-10-21T14:13:07.638Z,17.99
2023-10-21T14:14:39.881Z,18.07
2023-10-21T14:16:14.279Z,18.03
2023-10-21T14:17:46.620Z,18.33
2023-10-21T14:19:20.144Z,17.74
2023-10-21T14:20:54.444Z,18.13
2023-10-21T14:22:29.321Z,18.20
2023-10-21T14:24:04.025Z,17.98
2023-10-21T14:25:39.673Z,17.81
2023-10-21T14:27:12.919Z,18.21
2023-10-21T14:28:49.190Z,17.91
2023-10-21T14:30:21.547Z,18.37
2023-10-21T14:31:55.084Z,18.31
2023-10-21T14:33:29.389Z,18.61
2023-10-21T14:35:02.699Z,18.25
2023-10-21T14:36:34.952Z,18.50
2023-10-21T14:38:08.740Z,18.54
2023-10-21T14:39:41.060Z,18.63
2023-10-21T14:41:15.002Z,18.83
2023-10-21T14:42:47.770Z,18.84
2023-10-21T14:44:22.649Z,18.55
2023-10-21T14:45:54.941Z,18.76
2023-10-21T14:47:31.660Z,18.77
2023-10-21T14:49:07.486Z,18.44
2023-10-21T14:50:41.273Z,18.67
2023-10-21T14:52:16.425Z,18.47
2023-10-21T14:53:49.716Z,18.86
2023-10-21T14:55:24.646Z,18.74
2023-10-21T14:57:01.461Z,18.57
2023-10-21T14:58:34.800Z,18.66
2023-10-21T15:00:14.974Z,18.91
2023-10-21T15:01:48.426Z,19.01
2023-10-21T15:03:22.182Z,19.19
2023-10-21T15:04:56.033Z,18.76
2023-10-21T15:06:31.515Z,18.97
2023-10-21T15:08:04.232Z,19.49
2023-10-21T15:09:37.714Z,19.51
2023-10-21T15:11:15.943Z,19.49
2023-10-21T15:12:49.867Z,19.61
2023-10-21T15:14:34.356Z,20.10
2023-10-21T15:16:18.522Z,20.11
2023-10-21T15:17:51.461Z,20.13
2023-10-21T15:19:25.919Z,20.34
2023-10-21T15:21:03.993Z,20.19
2023-10-21T15:22:37.821Z,20.65
2023-10-21T15:24:10.069Z,20.94
2023-10-21T15:25:43.308Z,20.50
2023-10-21T15:27:15.701Z,21.32
2023-10-21T15:28:49.471Z,21.05
2023-10-21T15:30:24.115Z,21.09
2023-10-21T15:31:57.980Z,21.06
2023-10-21T15:33:31.254Z,21.43
2023-10-21T15:35:07.603Z,21.98
2023-10-21T15:36:40.970Z,22.06
2023-10-21T15:38:14.036Z,21.92
2023-10-21T15:39:47.368Z,21.97
2023-10-21T15:41:19.757Z,22.29
2023-10-21T15:42:52.990Z,22.36
2023-10-21T15:44:25.302Z,22.92
2023-10-21T15:46:00.628Z,22.68
2023-10-21T15:47:35.588Z,23.45
2023-10-21T15:49:09.777Z,23.43
2023-10-21T15:50:42.067Z,23.52
2023-10-21T15:52:15.366Z,23.88
2023-10-21T15:53:47.923Z,24.01
2023-10-21T15:55:21.211Z,24.58
2023-10-21T15:56:53.726Z,24.78
2023-10-21T15:58:26.947Z,24.88
2023-10-21T16:00:02.123Z,25.34
2023-10-21T16:01:38.928Z,25.87
2023-10-21T16:03:12.975Z,25.69
2023-10-21T16:04:46.290Z,26.02
2023-10-21T16:06:18.797Z,25.97
2023-10-21T16:09:29.768Z,27.04
2023-10-21T16:11:04.232Z,27.33
2023-10-21T16:12:37.829Z,27.54
2023-10-21T16:14:10.046Z,28.47
2023-10-21T16:15:43.884Z,27.92
2023-10-21T16:17:17.412Z,28.24
2023-10-21T16:18:51.780Z,28.42
2023-10-21T16:20:25.272Z,29.08
2023-10-21T16:21:58.696Z,29.62
2023-10-21T16:23:32.081Z,29.86
2023-10-21T16:25:06.465Z,29.61
2023-10-21T16:26:38.648Z,29.89
2023-10-21T16:28:13.111Z,30.64
2023-10-21T16:29:45.517Z,30.52
2023-10-21T16:31:19.174Z,30.71
2023-10-21T16:32:51.464Z,30.60
2023-10-21T16:34:26.799Z,30.11
2023-10-21T16:35:59.300Z,30.54
2023-10-21T16:37:32.741Z,30.98
2023-10-21T16:39:05.191Z,31.31
2023-10-21T16:40:38.470Z,31.06
2023-10-21T16:42:10.853Z,31.00
2023-10-21T16:43:44.477Z,31.58
2023-10-21T16:45:17.090Z,31.55
2023-10-21T16:46:50.449Z,31.90
2023-10-21T16:48:22.659Z,32.09
2023-10-21T16:49:57.707Z,32.37
2023-10-21T16:51:31.025Z,32.72
2023-10-21T16:53:03.647Z,32.68
2023-10-21T16:54:37.213Z,32.94
2023-10-21T16:56:10.812Z,33.27
2023-10-21T16:57:44.152Z,33.27
2023-10-21T16:59:17.445Z,33.69
2023-10-21T17:00:49.792Z,33.75
2023-10-21T17:02:23.396Z,34.34
2023-10-21T17:03:56.691Z,33.82
2023-10-21T17:05:30.330Z,34.02
2023-10-21T17:07:03.607Z,34.07
2023-10-21T17:08:37.505Z,34.01
2023-10-21T17:10:11.587Z,33.62
2023-10-21T17:11:45.461Z,34.31
2023-10-21T17:13:21.636Z,34.24
2023-10-21T17:14:54.541Z,34.02
2023-10-21T17:16:27.900Z,33.72
2023-10-21T17:18:00.311Z,33.45
2023-10-21T17:19:33.759Z,33.56
2023-10-21T17:21:07.642Z,33.39
2023-10-21T17:22:42.028Z,33.42
2023-10-21T17:24:14.581Z,33.31
2023-10-21T17:25:48.692Z,33.53
2023-10-21T17:27:21.160Z,33.66
2023-10-21T17:28:54.581Z,33.81
2023-10-21T17:30:27.084Z,33.54
2023-10-21T17:32:00.812Z,33.63
2023-10-21T17:33:43.567Z,33.83
2023-10-21T17:35:25.548Z,33.76
2023-10-21T17:36:59.551Z,33.46
2023-10-21T17:38:33.174Z,33.37
2023-10-21T17:40:06.689Z,33.58
2023-10-21T17:41:40.027Z,33.69
2023-10-21T17:43:13.823Z,33.70
2023-10-21T17:44:47.351Z,33.81
2023-10-21T17:46:22.895Z,33.99
2023-10-21T17:47:56.252Z,34.52
2023-10-21T17:49:28.811Z,34.18
2023-10-21T17:51:02.186Z,34.04
2023-10-21T17:52:36.996Z,34.20
2023-10-21T17:54:14.695Z,34.05
2023-10-21T17:55:48.262Z,34.07
2023-10-21T17:57:22.310Z,34.28
2023-10-21T17:58:55.653Z,34.15
2023-10-21T18:00:31.514Z,34.37
2023-10-21T18:02:05.239Z,34.50
2023-10-21T18:03:40.295Z,34.66
2023-10-21T18:05:12.877Z,34.98
2023-10-21T18:06:46.153Z,34.96
2023-10-21T18:08:21.890Z,34.97
2023-10-21T18:09:55.524Z,35.57
2023-10-21T18:11:28.219Z,35.38
2023-10-21T18:13:01.379Z,34.94
2023-10-21T18:14:33.615Z,35.19
2023-10-21T18:16:07.463Z,35.31
2023-10-21T18:17:41.032Z,35.55
2023-10-21T18:19:14.964Z,35.33
2023-10-21T18:20:47.241Z,35.44
2023-10-21T18:22:20.609Z,35.16
2023-10-21T18:23:55.496Z,35.60
2023-10-21T18:25:28.050Z,35.25
2023-10-21T18:27:02.036Z,35.56
2023-10-21T18:28:35.214Z,35.54
2023-10-21T18:30:09.618Z,35.63
2023-10-21T18:31:41.915Z,36.06
2023-10-21T18:33:15.435Z,35.68
2023-10-21T18:34:47.833Z,35.61
2023-10-21T18:36:21.343Z,35.67
2023-10-21T18:37:58.141Z,35.99
2023-10-21T18:39:34.130Z,36.15
2023-10-21T18:41:07.962Z,36.00
2023-10-21T18:42:41.540Z,36.23
2023-10-21T18:44:14.405Z,36.40
2023-10-21T18:45:47.935Z,36.79
2023-10-21T18:47:20.361Z,36.83
2023-10-21T18:48:54.114Z,36.63
2023-10-21T18:50:26.374Z,36.71
2023-10-21T18:51:59.647Z,36.69
2023-10-21T18:53:32.096Z,36.63
2023-10-21T18:55:08.214Z,36.89
2023-10-21T18:56:40.500Z,37.12
2023-10-21T18:58:13.781Z,37.11
2023-10-21T18:59:47.138Z,37.10
2023-10-21T19:01:20.074Z,37.53
2023-10-21T19:02:53.510Z,37.81
2023-10-21T19:04:26.106Z,37.80
2023-10-21T19:05:59.648Z,38.03
2023-10-21T19:07:32.027Z,38.04
2023-10-21T19:09:07.355Z,38.16
2023-10-21T19:10:47.289Z,38.88
2023-10-21T19:12:20.834Z,38.13
2023-10-21T19:13:53.389Z,38.23
2023-10-21T19:15:26.739Z,38.27
2023-10-21T19:17:00.159Z,38.36
2023-10-21T19:18:32.459Z,38.53
2023-10-21T19:20:06.978Z,39.02
2023-10-21T19:21:40.357Z,38.94
2023-10-21T19:23:12.769Z,38.99
2023-10-21T19:24:46.283Z,38.93
2023-10-21T19:26:22.134Z,39.16
2023-10-21T19:27:55.496Z,38.65
2023-10-21T19:29:30.546Z,38.94
2023-10-21T19:31:08.733Z,38.71
2023-10-21T19:32:42.113Z,38.65
2023-10-21T19:34:14.315Z,38.72
2023-10-21T19:35:54.610Z,40.24
2023-10-21T19:37:27.346Z,39.32
2023-10-21T19:39:00.646Z,39.28
2023-10-21T19:40:33.012Z,39.70
2023-10-21T19:42:08.229Z,40.08
2023-10-21T19:43:40.716Z,40.48
2023-10-21T19:45:14.597Z,40.26
2023-10-21T19:46:48.427Z,40.53
2023-10-21T19:48:21.091Z,40.59
2023-10-21T22:53:41.618Z,49.99
2023-10-21T22:55:17.324Z,49.14
2023-10-21T22:56:51.592Z,49.11
2023-10-21T22:58:24.021Z,49.15
2023-10-21T22:59:57.342Z,50.30
2023-10-21T23:01:29.642Z,49.64
2023-10-21T23:03:03.713Z,50.67
2023-10-21T23:04:36.455Z,50.44
2023-10-21T23:06:10.102Z,50.30
2023-10-21T23:07:45.617Z,50.20
2023-10-21T23:09:29.757Z,50.26
2023-10-21T23:11:04.740Z,50.84
2023-10-21T23:12:38.659Z,51.12
2023-10-21T23:14:11.944Z,50.95
2023-10-21T23:15:45.311Z,51.45
2023-10-21T23:17:18.795Z,51.07
2023-10-21T23:18:51.338Z,51.72
2023-10-21T23:20:24.724Z,51.84
2023-10-21T23:21:56.993Z,51.04
2023-10-21T23:23:30.432Z,51.71
2023-10-21T23:25:02.926Z,51.27